Time;durP1;ratioP1;P1;durP2;ratioP2;P2;SDS_P1;SDS_P2;PMS_P1;PMS_P2;Temp;Humidity;BMP_temperature;BMP_pressure;BME280_temperature;BME280_humidity;BME280_pressure;Samples;Min_cycle;Max_cycle;Signal;HPM_P1;HPM_P2
2022/08/14 00:02:06;;;;;;;2.85;2.65;;;;;;;;;;5055190;28;20229;-84
2022/08/14 00:04:34;;;;;;;3.08;2.88;;;;;;;;;;5060369;28;20705;-84
2022/08/14 00:07:01;;;;;;;3.25;3.05;;;;;;;;;;5075146;28;20259;-83
2022/08/14 00:09:28;;;;;;;3.22;3.00;;;;;;;;;;5075947;28;20209;-83
2022/08/14 00:11:55;;;;;;;3.40;3.10;;;;;;;;;;5074858;28;20233;-84
2022/08/14 00:14:24;;;;;;;6.32;3.88;;;;;;;;;;5075614;28;20229;-83
2022/08/14 00:16:51;;;;;;;4.72;4.13;;;;;;;;;;5074944;28;20233;-84
2022/08/14 00:19:18;;;;;;;3.50;3.20;;;;;;;;;;5056483;28;20203;-83
2022/08/14 00:21:45;;;;;;;3.25;3.00;;;;;;;;;;5055225;28;20229;-84
2022/08/14 00:24:12;;;;;;;3.50;3.20;;;;;;;;;;5055224;28;20198;-84
2022/08/14 00:26:39;;;;;;;3.40;3.10;;;;;;;;;;5054653;28;20234;-83
2022/08/14 00:29:06;;;;;;;3.55;3.13;;;;;;;;;;5055139;28;20206;-83
2022/08/14 00:31:35;;;;;;;3.40;3.10;;;;;;;;;;5054608;28;20233;-84
2022/08/14 00:34:02;;;;;;;3.30;3.10;;;;;;;;;;5055312;28;20213;-84
2022/08/14 00:36:29;;;;;;;3.53;3.22;;;;;;;;;;5054783;28;20238;-83
2022/08/14 00:38:56;;;;;;;4.43;3.50;;;;;;;;;;5055224;28;20215;-84
2022/08/14 00:41:23;;;;;;;4.93;3.15;;;;;;;;;;5054656;28;20580;-83
2022/08/14 00:43:50;;;;;;;4.68;3.33;;;;;;;;;;5055027;28;20214;-84
2022/08/14 00:46:17;;;;;;;3.60;3.30;;;;;;;;;;5054420;28;20233;-84
2022/08/14 00:48:47;;;;;;;3.58;3.28;;;;;;;;;;5055282;28;20194;-84
2022/08/14 00:51:14;;;;;;;3.75;3.45;;;;;;;;;;5054656;28;20233;-84
2022/08/14 00:53:41;;;;;;;3.70;3.40;;;;;;;;;;5055351;28;20283;-84
2022/08/14 00:56:09;;;;;;;3.40;3.20;;;;;;;;;;5054578;28;20241;-84
2022/08/14 00:58:36;;;;;;;3.60;3.30;;;;;;;;;;5055163;28;20194;-84
2022/08/14 01:01:05;;;;;;;3.65;3.35;;;;;;;;;;5054455;28;20232;-84
2022/08/14 01:03:38;;;;;;;3.70;3.40;;;;;;;;;;5058841;28;20217;-84
2022/08/14 01:06:08;;;;;;;17.33;4.35;;;;;;;;;;5072281;28;20237;-84
2022/08/14 01:08:50;;;;;;;5.00;3.78;;;;;;;;;;5066985;28;20739;-84
2022/08/14 01:11:17;;;;;;;6.75;3.65;;;;;;;;;;5074027;28;20283;-84
2022/08/14 01:13:45;;;;;;;5.78;3.75;;;;;;;;;;5074726;28;20230;-84
2022/08/14 01:16:14;;;;;;;6.15;3.50;;;;;;;;;;5074702;28;20238;-83
2022/08/14 01:21:30;;;;;;;4.15;3.40;;;;;;;;;;5055494;28;20292;-84
2022/08/14 01:23:58;;;;;;;4.07;3.65;;;;;;;;;;5055013;28;20377;-84
2022/08/14 01:26:40;;;;;;;4.40;4.00;;;;;;;;;;5053869;28;20234;-83
2022/08/14 01:29:07;;;;;;;5.18;3.70;;;;;;;;;;5054825;28;20210;-84
2022/08/14 01:31:35;;;;;;;4.10;3.70;;;;;;;;;;5054255;28;20250;-83
2022/08/14 01:34:04;;;;;;;4.57;3.78;;;;;;;;;;5054706;28;20259;-84
2022/08/14 01:36:36;;;;;;;6.68;3.72;;;;;;;;;;5054134;28;20245;-84
2022/08/14 01:39:05;;;;;;;4.40;4.00;;;;;;;;;;5056479;28;20198;-83
2022/08/14 01:41:32;;;;;;;4.18;3.88;;;;;;;;;;5054265;28;20324;-83
2022/08/14 01:44:01;;;;;;;4.10;3.72;;;;;;;;;;5054918;28;20305;-84
2022/08/14 01:46:28;;;;;;;4.82;3.95;;;;;;;;;;5054320;28;20248;-84
2022/08/14 01:48:56;;;;;;;4.40;3.90;;;;;;;;;;5054213;28;20202;-84
2022/08/14 01:51:25;;;;;;;4.50;4.13;;;;;;;;;;5054583;28;20237;-83
2022/08/14 01:53:54;;;;;;;3.83;3.53;;;;;;;;;;5054644;28;20206;-84
2022/08/14 01:56:22;;;;;;;4.97;4.57;;;;;;;;;;5053350;28;20248;-83
2022/08/14 01:58:50;;;;;;;7.47;4.43;;;;;;;;;;5055803;28;20552;-83
2022/08/14 02:01:18;;;;;;;4.53;4.07;;;;;;;;;;5059438;28;20233;-84
2022/08/14 02:03:45;;;;;;;4.10;3.72;;;;;;;;;;5054200;28;20210;-84
2022/08/14 02:06:12;;;;;;;6.72;4.70;;;;;;;;;;5053354;28;20242;-83
2022/08/14 02:08:40;;;;;;;4.68;4.28;;;;;;;;;;5054036;28;20197;-84
2022/08/14 02:11:21;;;;;;;5.32;4.05;;;;;;;;;;5053184;28;20618;-84
2022/08/14 02:13:49;;;;;;;5.88;4.57;;;;;;;;;;5054499;28;20194;-84
2022/08/14 02:16:18;;;;;;;5.15;4.05;;;;;;;;;;5053400;28;20729;-83
2022/08/14 02:18:45;;;;;;;6.32;4.18;;;;;;;;;;5053911;28;20202;-83
2022/08/14 02:21:17;;;;;;;5.35;4.30;;;;;;;;;;5053095;28;20258;-84
2022/08/14 02:23:44;;;;;;;11.07;4.60;;;;;;;;;;5053484;28;20236;-83
2022/08/14 02:26:17;;;;;;;13.88;4.88;;;;;;;;;;5052880;28;20621;-84
2022/08/14 02:28:45;;;;;;;8.13;4.70;;;;;;;;;;5054131;28;20206;-84
2022/08/14 02:31:12;;;;;;;10.88;6.80;;;;;;;;;;5052974;28;20299;-83
2022/08/14 02:33:40;;;;;;;4.75;4.20;;;;;;;;;;5053616;28;20595;-84
2022/08/14 02:36:08;;;;;;;6.80;4.95;;;;;;;;;;5053087;28;20237;-84
2022/08/14 02:38:36;;;;;;;6.28;4.53;;;;;;;;;;5053618;28;20565;-84
2022/08/14 02:41:03;;;;;;;4.70;4.30;;;;;;;;;;5052701;28;20233;-84
2022/08/14 02:43:31;;;;;;;5.40;4.90;;;;;;;;;;5053008;28;20259;-84
2022/08/14 02:45:59;;;;;;;4.93;4.45;;;;;;;;;;5052462;28;20241;-83
2022/08/14 02:48:30;;;;;;;5.43;4.82;;;;;;;;;;5053252;28;20233;-83
2022/08/14 02:50:57;;;;;;;11.77;4.68;;;;;;;;;;5052665;28;20299;-83
2022/08/14 02:53:24;;;;;;;7.55;4.65;;;;;;;;;;5052920;28;20201;-84
2022/08/14 02:55:51;;;;;;;6.50;4.57;;;;;;;;;;5052636;28;20233;-84
2022/08/14 02:58:22;;;;;;;6.25;4.60;;;;;;;;;;5053354;28;20209;-83
2022/08/14 03:00:51;;;;;;;5.30;4.85;;;;;;;;;;5052663;28;20283;-83
2022/08/14 03:03:22;;;;;;;6.07;5.38;;;;;;;;;;5053045;28;20256;-84
2022/08/14 03:05:50;;;;;;;4.97;4.47;;;;;;;;;;5052620;28;20291;-83
2022/08/14 03:08:17;;;;;;;5.63;5.13;;;;;;;;;;5052747;28;20567;-83
2022/08/14 03:10:45;;;;;;;9.45;5.13;;;;;;;;;;5052139;28;20233;-84
2022/08/14 03:13:12;;;;;;;6.57;5.18;;;;;;;;;;5052761;28;20237;-84
2022/08/14 03:15:39;;;;;;;5.65;5.15;;;;;;;;;;5052269;28;20230;-84
2022/08/14 03:18:11;;;;;;;5.88;5.28;;;;;;;;;;5053275;28;20228;-83
2022/08/14 03:20:38;;;;;;;5.37;4.93;;;;;;;;;;5052532;28;20235;-84
2022/08/14 03:23:05;;;;;;;6.38;5.70;;;;;;;;;;5052670;28;20218;-83
2022/08/14 03:25:32;;;;;;;6.10;5.60;;;;;;;;;;5051541;28;20716;-83
2022/08/14 03:28:02;;;;;;;5.30;4.80;;;;;;;;;;5053035;28;20316;-84
2022/08/14 03:30:30;;;;;;;6.43;5.27;;;;;;;;;;5052397;28;20320;-83
2022/08/14 03:32:57;;;;;;;5.50;5.00;;;;;;;;;;5052701;28;20202;-83
2022/08/14 03:35:25;;;;;;;5.77;5.27;;;;;;;;;;5053484;28;20644;-83
2022/08/14 03:37:52;;;;;;;6.43;5.03;;;;;;;;;;5061634;28;20226;-83
2022/08/14 03:40:20;;;;;;;8.90;5.70;;;;;;;;;;5053681;28;20721;-83
2022/08/14 03:42:47;;;;;;;5.73;4.87;;;;;;;;;;5055159;28;20206;-83
2022/08/14 03:45:14;;;;;;;8.03;5.63;;;;;;;;;;5070388;28;20287;-84
2022/08/14 03:47:41;;;;;;;7.33;5.73;;;;;;;;;;5055371;28;20233;-83
2022/08/14 03:50:09;;;;;;;9.10;5.30;;;;;;;;;;5054608;28;20246;-84
2022/08/14 03:52:38;;;;;;;6.47;5.50;;;;;;;;;;5053411;28;20214;-84
2022/08/14 03:55:07;;;;;;;5.40;5.00;;;;;;;;;;5052940;28;20212;-83
2022/08/14 03:57:34;;;;;;;8.40;5.63;;;;;;;;;;5052725;28;20222;-83
2022/08/14 04:00:03;;;;;;;5.43;5.00;;;;;;;;;;5070778;28;20312;-83
2022/08/14 04:02:30;;;;;;;6.00;5.30;;;;;;;;;;5072799;28;20197;-83
2022/08/14 04:04:57;;;;;;;8.40;6.10;;;;;;;;;;5072358;28;20205;-84
2022/08/14 04:07:24;;;;;;;8.43;5.77;;;;;;;;;;5058596;28;20675;-83
2022/08/14 04:09:53;;;;;;;12.63;6.43;;;;;;;;;;5052255;28;20209;-83
2022/08/14 04:12:20;;;;;;;6.73;5.67;;;;;;;;;;5052408;28;20209;-83
2022/08/14 04:14:47;;;;;;;8.60;6.47;;;;;;;;;;5052321;28;20200;-83
2022/08/14 04:17:14;;;;;;;9.37;6.60;;;;;;;;;;5055147;28;20226;-83
2022/08/14 04:19:41;;;;;;;9.20;6.27;;;;;;;;;;5082222;28;20258;-83
2022/08/14 04:22:08;;;;;;;8.10;6.13;;;;;;;;;;5055083;28;20250;-83
2022/08/14 04:24:37;;;;;;;10.00;5.97;;;;;;;;;;5053812;28;20194;-83
2022/08/14 04:27:07;;;;;;;8.67;6.53;;;;;;;;;;5052947;28;20246;-83
2022/08/14 04:29:37;;;;;;;8.00;6.23;;;;;;;;;;5053140;28;20260;-84
2022/08/14 04:32:04;;;;;;;10.67;6.73;;;;;;;;;;5052315;28;20710;-84
2022/08/14 04:34:33;;;;;;;11.20;6.67;;;;;;;;;;5052936;28;20229;-83
2022/08/14 04:45:16;;;;;;;8.63;6.13;;;;;;;;;;5072726;28;20235;-83
2022/08/14 04:50:29;;;;;;;8.70;6.93;;;;;;;;;;5076201;28;20695;-83
2022/08/14 04:52:56;;;;;;;7.43;6.63;;;;;;;;;;5076036;28;20573;-83
2022/08/14 04:55:23;;;;;;;9.03;6.63;;;;;;;;;;5077523;28;20233;-83
2022/08/14 04:57:51;;;;;;;12.57;7.47;;;;;;;;;;5056234;28;20221;-83
2022/08/14 05:00:18;;;;;;;12.50;7.60;;;;;;;;;;5056653;28;20237;-83
2022/08/14 05:02:46;;;;;;;8.00;6.77;;;;;;;;;;5058084;28;20206;-83
2022/08/14 05:05:13;;;;;;;9.20;8.30;;;;;;;;;;5060713;28;20312;-83
2022/08/14 05:07:41;;;;;;;8.67;7.67;;;;;;;;;;5090527;22;20597;-80
2022/08/14 05:10:09;;;;;;;9.20;7.83;;;;;;;;;;5082389;28;20311;-81
2022/08/14 05:12:39;;;;;;;10.70;7.90;;;;;;;;;;5082089;28;20201;-81
2022/08/14 05:15:09;;;;;;;14.10;8.47;;;;;;;;;;5080410;28;20227;-81
2022/08/14 05:17:41;;;;;;;9.77;7.93;;;;;;;;;;5077842;28;20290;-81
2022/08/14 05:20:09;;;;;;;9.10;8.20;;;;;;;;;;5073709;28;20208;-81
2022/08/14 05:22:36;;;;;;;9.03;8.13;;;;;;;;;;5073733;28;20212;-81
2022/08/14 05:25:04;;;;;;;12.10;8.87;;;;;;;;;;5073921;28;20272;-82
2022/08/14 05:27:31;;;;;;;8.83;7.87;;;;;;;;;;5074281;28;20233;-81
2022/08/14 05:29:58;;;;;;;10.00;9.00;;;;;;;;;;5074767;28;20267;-81
2022/08/14 05:32:26;;;;;;;13.70;9.10;;;;;;;;;;5075766;28;20206;-82
2022/08/14 05:34:56;;;;;;;9.70;8.70;;;;;;;;;;5070973;28;20206;-82
2022/08/14 05:37:23;;;;;;;11.97;9.03;;;;;;;;;;5076043;28;20225;-82
2022/08/14 05:39:50;;;;;;;12.10;10.07;;;;;;;;;;5076060;28;20263;-81
2022/08/14 05:42:17;;;;;;;11.63;9.10;;;;;;;;;;5076522;28;20628;-82
2022/08/14 05:44:45;;;;;;;10.37;9.37;;;;;;;;;;5076372;28;20202;-81
2022/08/14 05:47:12;;;;;;;10.70;9.30;;;;;;;;;;5076035;28;20237;-82
2022/08/14 05:49:40;;;;;;;10.93;9.07;;;;;;;;;;5074593;28;20208;-81
2022/08/14 05:52:07;;;;;;;12.05;9.40;;;;;;;;;;5076648;28;20577;-82
2022/08/14 05:54:34;;;;;;;12.00;10.13;;;;;;;;;;5076289;28;20573;-81
2022/08/14 05:57:01;;;;;;;14.03;10.50;;;;;;;;;;5075715;28;20239;-82
2022/08/14 05:59:28;;;;;;;11.75;9.73;;;;;;;;;;5075533;28;20205;-82
2022/08/14 06:01:55;;;;;;;12.68;9.98;;;;;;;;;;5078274;28;20577;-82
2022/08/14 06:04:22;;;;;;;11.70;9.10;;;;;;;;;;5075680;28;20217;-82
2022/08/14 06:06:50;;;;;;;11.95;9.73;;;;;;;;;;5075875;28;20232;-81
2022/08/14 06:09:19;;;;;;;10.55;9.55;;;;;;;;;;5075971;28;20295;-81
2022/08/14 06:11:46;;;;;;;10.23;9.18;;;;;;;;;;5075216;28;20261;-81
2022/08/14 06:14:13;;;;;;;10.30;9.25;;;;;;;;;;5076075;28;20238;-81
2022/08/14 06:16:43;;;;;;;9.98;8.75;;;;;;;;;;5075540;28;20229;-81
2022/08/14 06:19:11;;;;;;;13.80;9.23;;;;;;;;;;5077081;28;20279;-81
2022/08/14 06:21:38;;;;;;;10.30;9.13;;;;;;;;;;5075839;27;20236;-81
2022/08/14 06:24:07;;;;;;;9.63;8.63;;;;;;;;;;5075822;28;20700;-81
2022/08/14 06:26:34;;;;;;;11.18;9.18;;;;;;;;;;5076530;28;20811;-81
2022/08/14 06:29:01;;;;;;;9.80;8.68;;;;;;;;;;5079949;28;20696;-81
2022/08/14 06:31:28;;;;;;;8.57;7.78;;;;;;;;;;5079095;28;20233;-81
2022/08/14 06:33:55;;;;;;;7.68;7.00;;;;;;;;;;5080041;28;20206;-81
2022/08/14 06:36:22;;;;;;;8.52;7.65;;;;;;;;;;5079637;28;20709;-81
2022/08/14 06:38:51;;;;;;;8.35;7.47;;;;;;;;;;5080042;28;20213;-81
2022/08/14 06:41:20;;;;;;;8.38;7.68;;;;;;;;;;5090507;28;20248;-81
2022/08/14 06:43:47;;;;;;;8.38;7.68;;;;;;;;;;5098158;28;20209;-82
2022/08/14 06:46:14;;;;;;;8.15;7.28;;;;;;;;;;5092615;27;20262;-82
2022/08/14 06:48:41;;;;;;;8.00;7.20;;;;;;;;;;5080248;28;20232;-82
2022/08/14 06:51:08;;;;;;;9.35;7.43;;;;;;;;;;5079874;28;20255;-81
2022/08/14 06:53:35;;;;;;;8.93;8.02;;;;;;;;;;5077523;28;20207;-80
2022/08/14 06:56:02;;;;;;;7.63;6.95;;;;;;;;;;5073408;28;20311;-80
2022/08/14 06:58:31;;;;;;;7.32;6.70;;;;;;;;;;5078118;28;20228;-79
2022/08/14 07:06:29;;;;;;;6.88;6.28;;;;;;;;;;5093015;28;20315;-81
2022/08/14 07:08:56;;;;;;;6.63;6.03;;;;;;;;;;5091925;28;20243;-79
2022/08/14 07:11:23;;;;;;;6.38;5.70;;;;;;;;;;5074711;28;20232;-78
2022/08/14 07:13:51;;;;;;;7.28;6.68;;;;;;;;;;5075415;28;20202;-78
2022/08/14 07:16:18;;;;;;;6.88;6.28;;;;;;;;;;5079350;28;20255;-79
2022/08/14 07:18:45;;;;;;;8.00;6.45;;;;;;;;;;5090598;28;20221;-80
2022/08/14 07:21:12;;;;;;;7.55;6.43;;;;;;;;;;5073288;28;20739;-79
2022/08/14 07:23:40;;;;;;;6.25;5.72;;;;;;;;;;5071671;28;20200;-78
2022/08/14 07:26:08;;;;;;;6.85;6.25;;;;;;;;;;5072377;27;20229;-78
2022/08/14 07:28:36;;;;;;;7.55;6.32;;;;;;;;;;5071184;28;20267;-79
2022/08/14 07:31:05;;;;;;;6.38;5.72;;;;;;;;;;5070348;28;20229;-79
2022/08/14 07:33:34;;;;;;;6.03;5.53;;;;;;;;;;5073442;28;20204;-80
2022/08/14 07:36:02;;;;;;;5.90;5.40;;;;;;;;;;5073094;28;20762;-79
2022/08/14 07:38:30;;;;;;;6.15;5.57;;;;;;;;;;5077159;28;20693;-79
2022/08/14 07:40:58;;;;;;;6.25;5.75;;;;;;;;;;5070768;27;20244;-79
2022/08/14 07:43:25;;;;;;;6.25;5.68;;;;;;;;;;5071466;28;20209;-79
2022/08/14 07:45:52;;;;;;;5.32;4.93;;;;;;;;;;5072675;28;20229;-79
2022/08/14 07:48:21;;;;;;;7.13;5.43;;;;;;;;;;5087631;28;20236;-80
2022/08/14 07:50:49;;;;;;;6.32;5.72;;;;;;;;;;5079554;28;20236;-79
2022/08/14 07:53:16;;;;;;;5.78;5.25;;;;;;;;;;5083095;28;20628;-79
2022/08/14 07:55:49;;;;;;;5.70;5.20;;;;;;;;;;5087976;28;20229;-79
2022/08/14 07:58:17;;;;;;;6.10;5.55;;;;;;;;;;5090088;28;20219;-79
2022/08/14 08:00:44;;;;;;;5.88;5.38;;;;;;;;;;5089324;28;20229;-80
2022/08/14 08:03:11;;;;;;;5.95;5.45;;;;;;;;;;5074650;28;20201;-79
2022/08/14 08:05:41;;;;;;;5.57;5.07;;;;;;;;;;5070759;28;20224;-82
2022/08/14 08:08:08;;;;;;;5.13;4.72;;;;;;;;;;5074842;28;20229;-80
2022/08/14 08:10:40;;;;;;;5.53;5.00;;;;;;;;;;5074375;28;20669;-80
2022/08/14 08:13:08;;;;;;;5.82;5.32;;;;;;;;;;5074559;28;20207;-80
2022/08/14 08:15:36;;;;;;;5.43;4.93;;;;;;;;;;5073618;28;20257;-80
2022/08/14 08:18:04;;;;;;;6.07;5.40;;;;;;;;;;5074233;28;20217;-80
2022/08/14 08:20:32;;;;;;;5.75;4.97;;;;;;;;;;5076166;28;20221;-80
2022/08/14 08:23:01;;;;;;;5.63;5.13;;;;;;;;;;5075801;28;20193;-80
2022/08/14 08:25:29;;;;;;;6.32;5.20;;;;;;;;;;5075935;28;20229;-80
2022/08/14 08:27:58;;;;;;;5.43;4.80;;;;;;;;;;5079677;28;20335;-80
2022/08/14 08:30:25;;;;;;;7.25;6.53;;;;;;;;;;5076868;28;20264;-81
2022/08/14 08:32:53;;;;;;;5.13;4.72;;;;;;;;;;5076427;28;20715;-80
2022/08/14 08:35:20;;;;;;;5.38;4.88;;;;;;;;;;5083073;28;20251;-80
2022/08/14 08:37:48;;;;;;;5.13;4.72;;;;;;;;;;5092667;28;20235;-81
2022/08/14 08:40:24;;;;;;;5.00;4.55;;;;;;;;;;5084640;28;20240;-80
2022/08/14 08:42:51;;;;;;;5.38;4.85;;;;;;;;;;5078770;28;20209;-81
2022/08/14 08:45:19;;;;;;;5.30;4.80;;;;;;;;;;5079959;28;20237;-81
2022/08/14 08:47:46;;;;;;;5.40;4.90;;;;;;;;;;5077922;28;20228;-79
2022/08/14 08:50:19;;;;;;;5.80;4.90;;;;;;;;;;5078133;28;20597;-80
2022/08/14 08:52:50;;;;;;;4.88;4.20;;;;;;;;;;5068719;28;20205;-81
2022/08/14 08:55:17;;;;;;;5.63;4.50;;;;;;;;;;5076692;28;20253;-82
2022/08/14 08:57:46;;;;;;;5.65;4.80;;;;;;;;;;5076844;28;20736;-82
2022/08/14 09:00:14;;;;;;;5.55;5.15;;;;;;;;;;5079458;28;20229;-82
2022/08/14 09:02:43;;;;;;;4.85;4.35;;;;;;;;;;5078594;28;20229;-82
2022/08/14 09:05:10;;;;;;;4.57;4.18;;;;;;;;;;5079231;28;20237;-83
2022/08/14 09:07:37;;;;;;;5.22;4.72;;;;;;;;;;5076843;28;20244;-84
2022/08/14 09:10:04;;;;;;;4.50;4.20;;;;;;;;;;5073934;28;20229;-84
2022/08/14 09:12:33;;;;;;;4.78;4.47;;;;;;;;;;5075584;28;20232;-83
2022/08/14 09:15:03;;;;;;;5.00;4.30;;;;;;;;;;5079119;28;20296;-82
2022/08/14 09:17:30;;;;;;;4.55;4.15;;;;;;;;;;5078079;28;20274;-85
2022/08/14 09:19:58;;;;;;;4.80;4.40;;;;;;;;;;5077209;28;20209;-85
2022/08/14 09:22:25;;;;;;;4.22;3.90;;;;;;;;;;5073441;28;20855;-85
2022/08/14 09:24:52;;;;;;;4.88;4.53;;;;;;;;;;5073313;28;20297;-85
2022/08/14 09:27:19;;;;;;;5.50;3.75;;;;;;;;;;5091968;28;20298;-85
2022/08/14 09:29:46;;;;;;;3.80;3.47;;;;;;;;;;5079160;28;20227;-82
2022/08/14 09:32:16;;;;;;;4.57;4.18;;;;;;;;;;5084818;28;20232;-83
2022/08/14 09:34:49;;;;;;;4.03;3.65;;;;;;;;;;5094910;28;20215;-84
2022/08/14 09:37:21;;;;;;;4.10;3.80;;;;;;;;;;5094176;28;20263;-85
2022/08/14 09:39:57;;;;;;;3.55;3.35;;;;;;;;;;5094364;28;20208;-84
2022/08/14 09:42:34;;;;;;;4.20;3.67;;;;;;;;;;5114167;28;20276;-84
2022/08/14 09:45:10;;;;;;;4.05;3.75;;;;;;;;;;5114293;27;20191;-84
2022/08/14 09:47:42;;;;;;;3.35;3.10;;;;;;;;;;5114368;28;20272;-84
2022/08/14 09:50:19;;;;;;;3.33;3.10;;;;;;;;;;5114517;27;20243;-84
2022/08/14 09:52:50;;;;;;;4.03;3.72;;;;;;;;;;5114981;28;20208;-85
2022/08/14 09:55:18;;;;;;;4.22;3.80;;;;;;;;;;5114866;27;20235;-84
2022/08/14 09:57:46;;;;;;;3.65;3.28;;;;;;;;;;5114760;28;20224;-84
2022/08/14 10:00:15;;;;;;;6.82;3.03;;;;;;;;;;5114256;27;20277;-84
2022/08/14 10:02:53;;;;;;;3.42;3.13;;;;;;;;;;5114387;28;20208;-84
2022/08/14 10:05:30;;;;;;;3.20;3.00;;;;;;;;;;5113639;27;20722;-84
2022/08/14 10:07:58;;;;;;;3.75;3.22;;;;;;;;;;5113825;28;20246;-84
2022/08/14 10:10:32;;;;;;;3.47;3.17;;;;;;;;;;5113506;27;20231;-84
2022/08/14 10:13:01;;;;;;;3.50;2.95;;;;;;;;;;5113688;28;20261;-84
2022/08/14 10:15:29;;;;;;;3.60;3.30;;;;;;;;;;5113537;27;20572;-84
2022/08/14 10:18:10;;;;;;;3.20;3.00;;;;;;;;;;5113705;28;20231;-84
2022/08/14 10:20:41;;;;;;;2.92;2.60;;;;;;;;;;5114027;27;20625;-84
2022/08/14 10:23:12;;;;;;;3.50;3.10;;;;;;;;;;5098546;28;20687;-84
2022/08/14 10:25:43;;;;;;;3.60;3.08;;;;;;;;;;5097669;27;20228;-84
2022/08/14 10:28:14;;;;;;;3.00;2.80;;;;;;;;;;5095895;28;20273;-84
2022/08/14 10:30:42;;;;;;;2.90;2.70;;;;;;;;;;5106766;27;20280;-84
2022/08/14 10:33:23;;;;;;;2.72;2.50;;;;;;;;;;5098174;28;20200;-85
2022/08/14 10:35:50;;;;;;;3.20;2.70;;;;;;;;;;5097841;27;20227;-84
2022/08/14 10:38:26;;;;;;;2.72;2.60;;;;;;;;;;5093783;28;20235;-84
2022/08/14 10:40:53;;;;;;;3.05;2.50;;;;;;;;;;5093432;27;20227;-84
2022/08/14 10:43:24;;;;;;;3.00;2.53;;;;;;;;;;5093860;28;20207;-82
2022/08/14 10:45:56;;;;;;;2.72;2.40;;;;;;;;;;5092863;27;20228;-84
2022/08/14 10:48:25;;;;;;;3.08;2.78;;;;;;;;;;5093244;28;20719;-84
2022/08/14 10:50:53;;;;;;;3.00;2.70;;;;;;;;;;5093080;27;20699;-84
2022/08/14 10:53:35;;;;;;;2.65;2.47;;;;;;;;;;5093381;28;20207;-84
2022/08/14 10:56:05;;;;;;;3.13;2.78;;;;;;;;;;5092764;27;20661;-84
2022/08/14 10:58:32;;;;;;;3.20;3.00;;;;;;;;;;5092683;28;20317;-84
2022/08/14 11:01:06;;;;;;;3.05;2.80;;;;;;;;;;5092072;27;20242;-84
2022/08/14 11:03:40;;;;;;;3.17;2.75;;;;;;;;;;5092633;28;20196;-84
2022/08/14 11:06:18;;;;;;;2.90;2.60;;;;;;;;;;5094401;27;20240;-84
2022/08/14 11:08:45;;;;;;;3.58;2.80;;;;;;;;;;5094610;28;20223;-84
2022/08/14 11:11:13;;;;;;;2.90;2.70;;;;;;;;;;5094874;27;20251;-86
2022/08/14 11:13:44;;;;;;;3.15;2.95;;;;;;;;;;5077238;28;20220;-84
2022/08/14 11:16:12;;;;;;;2.75;2.63;;;;;;;;;;5073376;28;20240;-83
2022/08/14 11:18:44;;;;;;;3.60;3.00;;;;;;;;;;5078260;28;20227;-84
2022/08/14 11:21:14;;;;;;;2.97;2.78;;;;;;;;;;5092379;27;20231;-83
2022/08/14 11:23:41;;;;;;;2.65;2.45;;;;;;;;;;5092935;28;20664;-84
2022/08/14 11:26:09;;;;;;;3.20;3.00;;;;;;;;;;5092234;27;20614;-84
2022/08/14 11:28:38;;;;;;;2.28;2.17;;;;;;;;;;5091809;28;20587;-83
2022/08/14 11:31:06;;;;;;;3.67;2.67;;;;;;;;;;5091221;27;20239;-84
2022/08/14 11:33:35;;;;;;;4.25;2.42;;;;;;;;;;5094543;28;20584;-84
2022/08/14 11:36:06;;;;;;;3.58;2.35;;;;;;;;;;5095053;27;20223;-83
2022/08/14 11:38:36;;;;;;;2.40;2.30;;;;;;;;;;5094965;28;20215;-83
2022/08/14 11:41:04;;;;;;;3.42;2.70;;;;;;;;;;5091081;27;20231;-84
2022/08/14 11:43:31;;;;;;;2.72;2.50;;;;;;;;;;5088772;28;20207;-82
2022/08/14 11:45:59;;;;;;;2.65;2.45;;;;;;;;;;5084054;27;20231;-85
2022/08/14 11:48:27;;;;;;;2.85;2.65;;;;;;;;;;5092942;28;20224;-84
2022/08/14 11:50:54;;;;;;;2.67;2.47;;;;;;;;;;5085592;28;20224;-84
2022/08/14 11:53:29;;;;;;;2.25;2.15;;;;;;;;;;5093070;28;20204;-84
2022/08/14 11:55:57;;;;;;;2.70;2.50;;;;;;;;;;5095775;28;20276;-84
2022/08/14 11:58:28;;;;;;;2.88;2.67;;;;;;;;;;5097566;28;20269;-83
2022/08/14 12:00:57;;;;;;;2.55;2.35;;;;;;;;;;5095631;27;20227;-84
2022/08/14 12:03:24;;;;;;;3.63;2.50;;;;;;;;;;5096184;28;20211;-85
2022/08/14 12:05:51;;;;;;;2.88;2.67;;;;;;;;;;5097169;27;20235;-84
2022/08/14 12:08:18;;;;;;;2.97;2.78;;;;;;;;;;5100011;28;20234;-82
2022/08/14 12:10:47;;;;;;;4.20;2.70;;;;;;;;;;5097731;27;20228;-83
2022/08/14 12:13:15;;;;;;;2.80;2.60;;;;;;;;;;5110003;28;20196;-83
2022/08/14 12:15:43;;;;;;;2.70;2.50;;;;;;;;;;5100327;27;20292;-84
2022/08/14 12:18:11;;;;;;;2.83;2.58;;;;;;;;;;5099598;28;20730;-83
2022/08/14 12:20:41;;;;;;;2.78;2.58;;;;;;;;;;5099378;27;20248;-84
2022/08/14 12:23:19;;;;;;;2.67;2.47;;;;;;;;;;5105078;28;20203;-83
2022/08/14 12:25:48;;;;;;;2.45;2.25;;;;;;;;;;5110429;27;20227;-84
2022/08/14 12:28:15;;;;;;;2.63;2.42;;;;;;;;;;5098081;28;20704;-83
2022/08/14 12:30:47;;;;;;;2.92;2.72;;;;;;;;;;5097120;27;20235;-83
2022/08/14 12:33:24;;;;;;;2.80;2.58;;;;;;;;;;5098068;28;20744;-83
2022/08/14 12:35:51;;;;;;;2.90;2.60;;;;;;;;;;5098244;27;20281;-83
2022/08/14 12:38:18;;;;;;;2.88;2.55;;;;;;;;;;5098532;28;20640;-83
2022/08/14 12:40:47;;;;;;;2.60;2.40;;;;;;;;;;5097059;27;20633;-83
2022/08/14 12:43:16;;;;;;;2.35;2.25;;;;;;;;;;5098659;28;20227;-83
2022/08/14 12:45:48;;;;;;;2.45;2.35;;;;;;;;;;5097924;27;20277;-83
2022/08/14 12:48:15;;;;;;;2.75;2.55;;;;;;;;;;5097153;28;20580;-83
2022/08/14 12:50:43;;;;;;;2.80;2.60;;;;;;;;;;5097881;27;20235;-83
2022/08/14 12:53:11;;;;;;;2.70;2.60;;;;;;;;;;5099220;28;20203;-83
2022/08/14 12:55:38;;;;;;;2.85;2.53;;;;;;;;;;5097845;27;20231;-84
2022/08/14 12:58:06;;;;;;;2.92;2.60;;;;;;;;;;5096962;28;20232;-84
2022/08/14 13:00:37;;;;;;;2.67;2.47;;;;;;;;;;5098330;27;20231;-84
2022/08/14 13:03:05;;;;;;;2.60;2.40;;;;;;;;;;5098243;28;20236;-83
2022/08/14 13:05:33;;;;;;;2.97;2.70;;;;;;;;;;5097916;27;20238;-83
2022/08/14 13:08:02;;;;;;;3.33;2.72;;;;;;;;;;5097778;28;20239;-83
2022/08/14 13:10:31;;;;;;;3.13;2.83;;;;;;;;;;5097464;28;20235;-83
2022/08/14 13:12:59;;;;;;;2.92;2.72;;;;;;;;;;5102963;28;20199;-83
2022/08/14 13:15:27;;;;;;;3.42;2.55;;;;;;;;;;5103577;27;20228;-83
2022/08/14 13:18:03;;;;;;;3.80;2.70;;;;;;;;;;5093674;28;20688;-83
2022/08/14 13:20:32;;;;;;;3.00;2.80;;;;;;;;;;5100276;27;20231;-83
2022/08/14 13:23:01;;;;;;;3.10;2.80;;;;;;;;;;5101100;28;20203;-85
2022/08/14 13:25:28;;;;;;;3.05;2.85;;;;;;;;;;5098771;27;20621;-85
2022/08/14 13:27:57;;;;;;;2.88;2.67;;;;;;;;;;5101950;28;20215;-84
2022/08/14 13:30:26;;;;;;;2.95;2.72;;;;;;;;;;5119853;27;20256;-83
2022/08/14 13:32:54;;;;;;;5.13;2.80;;;;;;;;;;5120410;28;20690;-84
2022/08/14 13:35:23;;;;;;;3.60;3.30;;;;;;;;;;5103289;27;20238;-85
2022/08/14 13:37:50;;;;;;;3.15;2.47;;;;;;;;;;5112216;28;20216;-85
2022/08/14 13:40:18;;;;;;;3.00;2.80;;;;;;;;;;5114017;27;20581;-85
2022/08/14 13:42:46;;;;;;;4.13;2.90;;;;;;;;;;5114657;28;20208;-84
2022/08/14 13:45:14;;;;;;;3.60;3.03;;;;;;;;;;5107664;28;20239;-85
2022/08/14 13:47:42;;;;;;;3.55;3.25;;;;;;;;;;5109057;28;20220;-85
2022/08/14 13:50:11;;;;;;;3.90;2.65;;;;;;;;;;5108325;27;20232;-84
2022/08/14 13:52:42;;;;;;;3.60;2.90;;;;;;;;;;5106661;28;20204;-85
2022/08/14 13:55:10;;;;;;;3.20;2.90;;;;;;;;;;5103301;28;20231;-84
2022/08/14 13:57:39;;;;;;;4.82;3.17;;;;;;;;;;5123269;28;20260;-84
2022/08/14 14:00:09;;;;;;;3.03;2.80;;;;;;;;;;5118618;28;20192;-84
2022/08/14 14:02:38;;;;;;;3.15;2.90;;;;;;;;;;5101683;28;20200;-85
2022/08/14 14:05:07;;;;;;;3.08;2.88;;;;;;;;;;5099323;27;20200;-84
2022/08/14 14:07:35;;;;;;;4.15;2.85;;;;;;;;;;5087670;28;20270;-84
2022/08/14 14:10:05;;;;;;;3.05;2.60;;;;;;;;;;5094333;27;20240;-84
2022/08/14 14:12:35;;;;;;;3.20;3.00;;;;;;;;;;5105913;28;20568;-83
2022/08/14 14:15:02;;;;;;;3.22;2.92;;;;;;;;;;5109429;27;20203;-85
2022/08/14 14:17:30;;;;;;;3.20;2.90;;;;;;;;;;5105416;28;20259;-84
2022/08/14 14:19:58;;;;;;;5.40;3.40;;;;;;;;;;5103324;27;20268;-84
2022/08/14 14:22:26;;;;;;;3.40;3.10;;;;;;;;;;5105353;28;20686;-85
2022/08/14 14:24:59;;;;;;;3.00;2.80;;;;;;;;;;5113352;27;20207;-85
2022/08/14 14:27:29;;;;;;;3.08;2.88;;;;;;;;;;5099378;28;20224;-85
2022/08/14 14:29:59;;;;;;;3.47;2.97;;;;;;;;;;5110449;27;20208;-84
2022/08/14 14:32:28;;;;;;;2.78;2.58;;;;;;;;;;5097187;28;20234;-83
2022/08/14 14:35:00;;;;;;;3.15;2.95;;;;;;;;;;5124019;27;20199;-85
2022/08/14 14:37:27;;;;;;;3.20;2.88;;;;;;;;;;5118857;28;20228;-84
2022/08/14 14:39:56;;;;;;;3.20;2.85;;;;;;;;;;5096020;27;20196;-84
2022/08/14 14:42:25;;;;;;;3.05;2.85;;;;;;;;;;5097829;28;20204;-84
2022/08/14 14:44:56;;;;;;;5.47;3.25;;;;;;;;;;5097777;27;20223;-84
2022/08/14 14:47:23;;;;;;;3.13;2.92;;;;;;;;;;5118164;28;20223;-84
2022/08/14 14:49:51;;;;;;;2.90;2.70;;;;;;;;;;5102395;27;20204;-85
2022/08/14 14:52:20;;;;;;;3.60;3.05;;;;;;;;;;5095406;28;20285;-84
2022/08/14 14:54:49;;;;;;;4.57;2.88;;;;;;;;;;5094367;28;20303;-84
2022/08/14 14:57:17;;;;;;;3.22;3.03;;;;;;;;;;5093884;28;20235;-84
2022/08/14 14:59:44;;;;;;;3.03;2.83;;;;;;;;;;5096522;28;20286;-84
2022/08/14 15:02:26;;;;;;;3.17;2.97;;;;;;;;;;5096858;27;20238;-84
2022/08/14 15:04:55;;;;;;;3.72;2.75;;;;;;;;;;5074939;28;20215;-84
2022/08/14 15:07:22;;;;;;;2.65;2.55;;;;;;;;;;5086142;28;20224;-84
2022/08/14 15:09:49;;;;;;;3.78;3.40;;;;;;;;;;5107840;27;20658;-85